Terminal Aerodrome Forecast
Issued by NWS

Current Version | Previous Version | Text Only | Print | Product List | Glossary Off
Versions: 1 2 3 4 5 6 7 8 9 10 11 12 13 14 15 16 17 18 19 20 21

140
FTUS41 KPBZ 201120
TAFMGW
TAF
KMGW 201120Z 2012/2112 11008KT P6SM -RA OVC035
     FM201300 14009KT 5SM -RA BKN015 OVC025
     FM201500 17009KT 2SM -RA OVC008
     FM202100 20009KT P6SM SCT010 OVC015=

USA.gov is the U.S. government's official web portal to all federal, state and local government web resources and services.